Time;durP1;ratioP1;P1;durP2;ratioP2;P2;SDS_P1;SDS_P2;PMS_P1;PMS_P2;Temp;Humidity;BMP_temperature;BMP_pressure;BME280_temperature;BME280_humidity;BME280_pressure;Samples;Min_cycle;Max_cycle;Signal;HPM_P1;HPM_P2
2022/07/06 00:00:48;;;;;;;5.28;1.33;;;13.00;99.90;;;;;;5132321;27;20042;-78
2022/07/06 00:03:14;;;;;;;3.92;1.60;;;13.00;99.90;;;;;;5132561;27;20054;-78
2022/07/06 00:05:39;;;;;;;4.80;1.30;;;12.90;99.90;;;;;;5132344;27;20070;-78
2022/07/06 00:08:05;;;;;;;5.57;1.52;;;13.00;99.90;;;;;;5132553;27;20047;-78
2022/07/06 00:10:31;;;;;;;3.78;1.20;;;13.00;99.90;;;;;;5132405;27;20047;-78
2022/07/06 00:12:56;;;;;;;5.05;1.63;;;13.00;99.90;;;;;;5132866;27;20034;-78
2022/07/06 00:15:22;;;;;;;4.43;1.23;;;13.00;99.90;;;;;;5132392;27;20126;-77
2022/07/06 00:17:47;;;;;;;3.45;1.35;;;13.00;99.90;;;;;;5132418;27;20031;-77
2022/07/06 00:20:13;;;;;;;3.22;1.25;;;13.00;99.90;;;;;;5133563;27;20393;-77
2022/07/06 00:22:39;;;;;;;2.45;0.95;;;13.10;99.90;;;;;;5132545;27;20039;-78
2022/07/06 00:25:05;;;;;;;3.70;1.35;;;13.10;99.90;;;;;;5132135;27;20100;-77
2022/07/06 00:27:31;;;;;;;6.70;1.42;;;13.10;99.90;;;;;;5132145;27;20051;-78
2022/07/06 00:29:56;;;;;;;1.50;1.15;;;13.20;99.90;;;;;;5131673;27;20639;-78
2022/07/06 00:32:22;;;;;;;3.53;1.60;;;13.20;99.90;;;;;;5132009;27;20051;-77
2022/07/06 00:34:47;;;;;;;6.30;1.40;;;13.30;99.90;;;;;;5132308;27;20400;-76
2022/07/06 00:37:15;;;;;;;4.32;1.65;;;13.30;99.90;;;;;;5132244;27;20100;-78
2022/07/06 00:39:40;;;;;;;3.67;1.45;;;13.40;99.90;;;;;;5132267;27;20050;-77
2022/07/06 00:42:06;;;;;;;2.47;1.30;;;13.40;99.90;;;;;;5132044;27;20466;-78
2022/07/06 00:44:33;;;;;;;2.35;1.10;;;13.40;99.90;;;;;;5131646;27;20039;-77
2022/07/06 00:46:59;;;;;;;4.97;1.38;;;13.40;99.90;;;;;;5131958;27;20046;-77
2022/07/06 00:52:11;;;;;;;4.85;1.48;;;13.40;99.90;;;;;;5132350;27;20134;-78
2022/07/06 00:54:39;;;;;;;3.58;1.77;;;13.50;99.90;;;;;;5131686;27;20072;-78
2022/07/06 00:57:05;;;;;;;3.65;1.17;;;13.50;99.90;;;;;;5132080;27;20047;-77
2022/07/06 00:59:31;;;;;;;5.63;1.95;;;13.50;99.90;;;;;;5114460;27;20093;-77
2022/07/06 01:01:57;;;;;;;1.77;1.35;;;13.60;99.90;;;;;;5131677;27;20042;-77
2022/07/06 01:04:23;;;;;;;4.30;1.52;;;13.50;99.90;;;;;;5131574;27;20422;-78
2022/07/06 01:06:49;;;;;;;7.05;1.42;;;13.60;99.90;;;;;;5131231;27;20039;-77
2022/07/06 01:09:14;;;;;;;2.42;1.38;;;13.60;99.90;;;;;;5131430;27;20047;-77
2022/07/06 01:11:40;;;;;;;4.70;1.58;;;13.50;99.90;;;;;;5131653;27;20050;-78
2022/07/06 01:14:07;;;;;;;4.22;1.58;;;13.60;99.90;;;;;;5131555;27;20039;-78
2022/07/06 01:16:33;;;;;;;3.03;1.38;;;13.70;99.90;;;;;;5114253;27;20088;-77
2022/07/06 01:18:58;;;;;;;3.63;1.40;;;13.70;99.90;;;;;;5144889;27;20051;-78
2022/07/06 01:21:24;;;;;;;4.47;1.27;;;13.70;99.90;;;;;;5146035;27;20047;-77
2022/07/06 01:23:50;;;;;;;4.10;1.20;;;13.70;99.90;;;;;;5131395;27;20035;-77
2022/07/06 01:26:20;;;;;;;3.03;1.42;;;13.70;99.90;;;;;;5130622;27;20470;-78
2022/07/06 01:28:51;;;;;;;4.78;1.33;;;13.70;99.90;;;;;;5130556;27;20043;-77
2022/07/06 01:31:25;;;;;;;3.65;1.45;;;13.70;99.90;;;;;;5130451;27;20035;-78
2022/07/06 01:33:53;;;;;;;5.05;1.08;;;13.70;99.90;;;;;;5130817;27;20169;-77
2022/07/06 01:36:19;;;;;;;1.80;1.02;;;13.80;99.90;;;;;;5130937;27;20047;-78
2022/07/06 01:38:53;;;;;;;4.07;1.10;;;13.70;99.90;;;;;;5130489;27;20046;-78
2022/07/06 01:41:19;;;;;;;4.25;1.25;;;13.70;99.90;;;;;;5130239;27;20114;-78
2022/07/06 01:43:45;;;;;;;2.03;1.30;;;13.70;99.90;;;;;;5130264;27;20054;-78
2022/07/06 01:46:11;;;;;;;4.30;1.27;;;13.70;99.90;;;;;;5130352;27;20042;-77
2022/07/06 01:48:37;;;;;;;7.60;1.50;;;13.80;99.90;;;;;;5130496;27;20035;-78
2022/07/06 01:51:04;;;;;;;2.85;1.27;;;13.80;99.90;;;;;;5130304;28;20330;-78
2022/07/06 01:53:30;;;;;;;3.80;1.40;;;13.80;99.90;;;;;;5130632;27;20648;-78
2022/07/06 01:55:55;;;;;;;3.20;1.45;;;13.80;99.90;;;;;;5130334;28;20096;-78
2022/07/06 01:58:21;;;;;;;2.95;1.10;;;13.80;99.90;;;;;;5130428;27;20035;-78
2022/07/06 02:00:47;;;;;;;6.93;1.38;;;13.90;99.90;;;;;;5115758;27;20096;-77
2022/07/06 02:03:12;;;;;;;4.45;1.98;;;13.80;99.90;;;;;;5135844;27;20039;-77
2022/07/06 02:05:38;;;;;;;3.00;1.35;;;13.80;99.90;;;;;;5134573;27;20031;-77
2022/07/06 02:08:03;;;;;;;5.18;1.38;;;13.80;99.90;;;;;;5134864;27;20031;-78
2022/07/06 02:10:29;;;;;;;3.53;1.58;;;13.70;99.90;;;;;;5134562;27;20035;-77
2022/07/06 02:12:54;;;;;;;4.38;1.65;;;13.70;99.90;;;;;;5135294;27;20458;-77
2022/07/06 02:15:20;;;;;;;2.75;1.20;;;13.70;99.90;;;;;;5135139;27;20537;-77
2022/07/06 02:17:46;;;;;;;2.65;1.30;;;13.80;99.90;;;;;;5134592;27;20111;-78
2022/07/06 02:20:11;;;;;;;3.33;1.15;;;13.70;99.90;;;;;;5134330;27;20127;-77
2022/07/06 02:22:37;;;;;;;4.60;1.23;;;13.60;99.90;;;;;;5134557;27;20078;-78
2022/07/06 02:25:03;;;;;;;3.75;1.45;;;13.60;99.90;;;;;;5134369;27;20040;-77
2022/07/06 02:27:29;;;;;;;3.30;1.70;;;13.60;99.90;;;;;;5134205;27;20039;-77
2022/07/06 02:29:54;;;;;;;3.33;1.05;;;13.70;99.90;;;;;;5133960;27;20065;-78
2022/07/06 02:32:20;;;;;;;2.55;1.23;;;13.70;99.90;;;;;;5134117;27;20103;-78
2022/07/06 02:34:45;;;;;;;3.70;1.30;;;13.70;99.90;;;;;;5133844;27;20035;-77
2022/07/06 02:37:11;;;;;;;5.50;1.30;;;13.80;99.90;;;;;;5133969;27;20126;-77
2022/07/06 02:39:36;;;;;;;5.25;1.15;;;13.80;99.90;;;;;;5116787;27;20050;-78
2022/07/06 02:42:02;;;;;;;2.90;1.17;;;13.70;99.90;;;;;;5141040;27;20039;-76
2022/07/06 02:44:28;;;;;;;4.97;1.40;;;13.80;99.90;;;;;;5158017;27;20047;-77
2022/07/06 02:46:53;;;;;;;4.68;1.45;;;13.70;99.90;;;;;;5137157;27;20035;-77
2022/07/06 02:49:19;;;;;;;3.75;1.23;;;13.70;99.90;;;;;;5134513;27;20079;-78
2022/07/06 02:51:44;;;;;;;4.90;1.13;;;13.70;99.90;;;;;;5134007;27;20035;-77
2022/07/06 02:54:10;;;;;;;3.53;1.42;;;13.60;99.90;;;;;;5134502;27;20046;-77
2022/07/06 02:56:36;;;;;;;6.80;1.30;;;13.70;99.90;;;;;;5134297;27;20039;-77
2022/07/06 02:59:02;;;;;;;2.60;1.30;;;13.70;99.90;;;;;;5135607;27;20063;-78
2022/07/06 03:01:27;;;;;;;7.68;1.42;;;13.60;99.90;;;;;;5133891;27;20058;-78
2022/07/06 03:03:53;;;;;;;2.88;1.17;;;13.70;99.90;;;;;;5134516;27;20039;-77
2022/07/06 03:06:18;;;;;;;2.90;1.00;;;13.80;99.90;;;;;;5134217;27;20035;-78
2022/07/06 03:08:44;;;;;;;3.05;1.58;;;13.70;99.90;;;;;;5134455;27;20081;-77
2022/07/06 03:11:10;;;;;;;4.88;1.38;;;13.70;99.90;;;;;;5133092;27;20045;-78
2022/07/06 03:13:35;;;;;;;1.63;0.98;;;13.80;99.90;;;;;;5134223;27;20638;-77
2022/07/06 03:16:01;;;;;;;3.65;1.38;;;13.80;99.90;;;;;;5134256;27;20039;-77
2022/07/06 03:18:27;;;;;;;7.13;2.50;;;13.80;99.90;;;;;;5133804;27;20516;-77
2022/07/06 03:20:53;;;;;;;7.45;2.00;;;13.80;99.90;;;;;;5133166;27;20176;-78
2022/07/06 03:23:18;;;;;;;7.95;2.45;;;13.80;99.90;;;;;;5133412;27;20047;-78
2022/07/06 03:25:45;;;;;;;8.52;1.80;;;13.80;99.90;;;;;;5133267;27;20470;-78
2022/07/06 03:28:11;;;;;;;6.60;2.20;;;13.80;99.90;;;;;;5133334;27;20363;-77
2022/07/06 03:30:37;;;;;;;8.18;2.30;;;13.90;99.90;;;;;;5132967;27;20103;-78
2022/07/06 03:33:02;;;;;;;3.75;1.98;;;13.80;99.90;;;;;;5132974;27;20034;-78
2022/07/06 03:35:28;;;;;;;5.28;1.30;;;13.80;99.90;;;;;;5133093;27;20355;-78
2022/07/06 03:37:54;;;;;;;3.42;1.60;;;13.80;99.90;;;;;;5133277;27;20039;-78
2022/07/06 03:40:20;;;;;;;3.65;1.35;;;13.80;99.90;;;;;;5132944;27;20100;-78
2022/07/06 03:42:45;;;;;;;2.60;1.38;;;13.80;99.90;;;;;;5132790;27;20154;-78
2022/07/06 03:45:11;;;;;;;2.72;2.17;;;13.80;99.90;;;;;;5132736;27;20043;-78
2022/07/06 03:47:36;;;;;;;7.18;1.50;;;13.80;99.90;;;;;;5115874;27;20038;-78
2022/07/06 03:50:02;;;;;;;4.93;1.45;;;13.80;99.90;;;;;;5134229;27;20035;-78
2022/07/06 03:52:28;;;;;;;2.33;1.20;;;13.80;99.90;;;;;;5133750;27;20038;-78
2022/07/06 03:54:55;;;;;;;5.22;1.48;;;13.80;99.90;;;;;;5134006;27;20503;-78
2022/07/06 03:57:21;;;;;;;6.60;1.65;;;13.80;99.90;;;;;;5133812;27;20043;-78
2022/07/06 03:59:47;;;;;;;2.20;1.05;;;13.80;99.90;;;;;;5133637;27;20473;-78
2022/07/06 04:02:13;;;;;;;3.88;1.30;;;13.90;99.90;;;;;;5132778;27;20035;-78
2022/07/06 04:04:38;;;;;;;7.13;1.58;;;13.80;99.90;;;;;;5133134;27;20115;-78
2022/07/06 04:07:04;;;;;;;3.20;1.30;;;13.80;99.90;;;;;;5133471;27;20054;-78
2022/07/06 04:09:30;;;;;;;5.22;1.60;;;13.90;99.90;;;;;;5132936;27;20076;-77
2022/07/06 04:11:56;;;;;;;5.45;1.42;;;13.90;99.90;;;;;;5133437;27;20424;-78
2022/07/06 04:14:21;;;;;;;3.33;1.23;;;13.90;99.90;;;;;;5133630;27;20081;-78
2022/07/06 04:16:47;;;;;;;3.45;1.27;;;13.90;99.90;;;;;;5133317;27;20094;-78
2022/07/06 04:19:12;;;;;;;5.47;1.25;;;13.90;99.90;;;;;;5133998;27;20130;-78
2022/07/06 04:21:38;;;;;;;2.70;1.27;;;14.00;99.90;;;;;;5133304;27;20516;-78
2022/07/06 04:24:04;;;;;;;2.78;1.40;;;14.00;99.90;;;;;;5132148;27;20047;-78
2022/07/06 04:26:30;;;;;;;4.47;1.30;;;14.00;99.90;;;;;;5116198;27;20043;-78
2022/07/06 04:28:56;;;;;;;5.78;1.48;;;14.00;99.90;;;;;;5133564;27;20099;-78
2022/07/06 04:31:22;;;;;;;2.30;1.45;;;14.10;99.90;;;;;;5133283;27;20038;-78
2022/07/06 04:33:47;;;;;;;5.15;1.23;;;14.10;99.90;;;;;;5133091;27;20035;-78
2022/07/06 04:36:13;;;;;;;6.18;1.27;;;14.20;99.90;;;;;;5134662;27;20043;-78
2022/07/06 04:38:38;;;;;;;4.40;1.38;;;14.20;99.90;;;;;;5133600;27;20073;-78
2022/07/06 04:41:04;;;;;;;5.97;1.23;;;14.30;99.90;;;;;;5132798;27;20054;-79
2022/07/06 04:43:30;;;;;;;1.77;1.30;;;14.30;99.90;;;;;;5132982;27;20046;-80
2022/07/06 04:45:56;;;;;;;3.50;1.20;;;14.40;99.90;;;;;;5117102;27;20035;-81
2022/07/06 04:48:21;;;;;;;5.40;1.20;;;14.40;99.90;;;;;;5133259;27;20076;-81
2022/07/06 04:50:47;;;;;;;4.53;1.17;;;14.50;99.90;;;;;;5132691;27;20031;-81
2022/07/06 04:53:12;;;;;;;4.57;0.98;;;14.50;99.90;;;;;;5135074;27;20036;-80
2022/07/06 04:55:38;;;;;;;6.00;1.25;;;14.50;99.90;;;;;;5134221;27;20088;-80
2022/07/06 04:58:04;;;;;;;5.13;1.25;;;14.60;99.90;;;;;;5132687;27;20070;-80
2022/07/06 05:00:29;;;;;;;5.38;1.60;;;14.60;99.90;;;;;;5131840;27;20035;-81
2022/07/06 05:02:55;;;;;;;4.78;1.27;;;14.70;99.90;;;;;;5114901;27;20071;-80
2022/07/06 05:05:21;;;;;;;3.92;0.95;;;14.90;99.90;;;;;;5115065;27;20485;-81
2022/07/06 05:07:46;;;;;;;5.03;1.08;;;15.10;99.90;;;;;;5132524;27;20039;-82
2022/07/06 05:10:12;;;;;;;3.53;1.33;;;15.20;99.90;;;;;;5134314;27;20035;-82
2022/07/06 05:12:38;;;;;;;5.18;1.35;;;15.40;99.90;;;;;;5115072;27;20062;-81
2022/07/06 05:15:05;;;;;;;4.95;2.45;;;15.60;99.90;;;;;;5132076;27;20043;-82
2022/07/06 05:17:30;;;;;;;3.00;1.10;;;16.30;99.90;;;;;;5133627;27;20042;-82
2022/07/06 05:19:56;;;;;;;2.83;0.82;;;17.10;99.90;;;;;;5131954;27;20043;-82
2022/07/06 05:22:22;;;;;;;6.22;0.80;;;17.90;99.90;;;;;;5132344;27;20083;-83
2022/07/06 05:24:47;;;;;;;3.47;1.05;;;18.50;99.90;;;;;;5115247;27;20035;-82
2022/07/06 05:27:13;;;;;;;5.57;2.17;;;18.90;99.90;;;;;;5114866;27;20038;-82
2022/07/06 05:29:39;;;;;;;5.43;1.30;;;19.00;99.90;;;;;;5131960;27;20046;-82
2022/07/06 05:32:05;;;;;;;5.05;1.52;;;19.10;99.90;;;;;;5115108;27;20091;-82
2022/07/06 05:34:32;;;;;;;2.70;1.10;;;19.30;99.90;;;;;;5114415;27;20054;-82
2022/07/06 05:36:57;;;;;;;2.30;0.70;;;19.40;99.90;;;;;;5131119;27;20046;-78
2022/07/06 05:39:23;;;;;;;2.38;0.70;;;19.80;99.90;;;;;;5131217;27;20038;-78
2022/07/06 05:41:49;;;;;;;6.60;0.85;;;20.00;99.90;;;;;;5113492;27;20482;-78
2022/07/06 05:44:15;;;;;;;1.40;0.70;;;20.20;99.90;;;;;;5130964;27;20406;-79
2022/07/06 05:46:42;;;;;;;3.53;0.60;;;20.40;99.90;;;;;;5129945;27;20494;-80
2022/07/06 05:51:51;;;;;;;1.60;0.60;;;20.90;99.90;;;;;;5130279;27;20054;-80
2022/07/06 05:54:17;;;;;;;2.85;0.80;;;21.10;99.90;;;;;;5130307;28;20031;-80
2022/07/06 05:56:42;;;;;;;2.88;0.55;;;21.40;99.90;;;;;;5130317;27;20187;-81
2022/07/06 05:59:09;;;;;;;3.38;0.75;;;21.60;99.90;;;;;;5130784;27;20496;-80
2022/07/06 06:01:34;;;;;;;2.80;0.60;;;21.70;99.90;;;;;;5113530;28;20053;-79
2022/07/06 06:04:00;;;;;;;5.35;0.55;;;21.80;99.90;;;;;;5130307;28;20043;-79
2022/07/06 06:06:26;;;;;;;3.67;0.60;;;22.00;99.90;;;;;;5130572;27;20039;-79
2022/07/06 06:08:52;;;;;;;3.28;0.70;;;22.30;99.90;;;;;;5130504;28;20088;-79
2022/07/06 06:11:17;;;;;;;4.35;0.70;;;22.30;99.90;;;;;;5130630;28;20035;-79
2022/07/06 06:13:43;;;;;;;2.60;0.50;;;21.70;99.50;;;;;;5131167;28;20447;-79
2022/07/06 06:16:09;;;;;;;2.80;0.45;;;21.00;99.90;;;;;;5130820;27;20039;-79
2022/07/06 06:18:35;;;;;;;4.60;0.50;;;20.20;99.90;;;;;;5132001;27;20043;-79
2022/07/06 06:21:00;;;;;;;4.15;0.60;;;19.60;99.90;;;;;;5130608;28;20061;-79
2022/07/06 06:23:26;;;;;;;5.75;1.50;;;19.20;99.90;;;;;;5130447;28;20035;-79
2022/07/06 06:25:52;;;;;;;1.90;0.40;;;18.80;99.90;;;;;;5130436;28;20189;-79
2022/07/06 06:28:17;;;;;;;3.55;0.55;;;18.50;99.90;;;;;;5130162;27;20089;-79
2022/07/06 06:30:43;;;;;;;1.52;0.40;;;18.30;99.90;;;;;;5130044;27;20126;-79
2022/07/06 06:33:17;;;;;;;1.90;0.45;;;18.00;99.90;;;;;;5131529;27;20039;-79
2022/07/06 06:35:51;;;;;;;2.00;0.70;;;17.90;99.90;;;;;;5133744;27;20042;-79
2022/07/06 06:38:21;;;;;;;4.15;0.50;;;17.80;99.90;;;;;;5153244;28;20047;-79
2022/07/06 06:40:47;;;;;;;3.70;0.60;;;17.70;99.90;;;;;;5154559;28;20046;-79
2022/07/06 06:43:13;;;;;;;3.45;0.70;;;17.60;99.90;;;;;;5144975;28;20035;-79
2022/07/06 06:45:39;;;;;;;2.75;0.50;;;17.60;99.90;;;;;;5130531;27;20039;-79
2022/07/06 06:48:05;;;;;;;4.18;0.70;;;17.60;99.90;;;;;;5133596;27;20035;-79
2022/07/06 06:50:30;;;;;;;1.70;0.30;;;17.70;99.90;;;;;;5134260;27;20050;-78
2022/07/06 06:52:56;;;;;;;5.68;0.80;;;17.70;99.90;;;;;;5134146;27;20481;-79
2022/07/06 06:55:21;;;;;;;1.88;0.40;;;17.70;99.90;;;;;;5134609;27;20402;-79
2022/07/06 06:57:47;;;;;;;2.38;0.80;;;17.60;99.90;;;;;;5133644;27;20501;-79
2022/07/06 07:00:13;;;;;;;2.25;0.57;;;17.60;99.90;;;;;;5133575;27;20050;-79
2022/07/06 07:02:39;;;;;;;2.05;0.73;;;17.60;99.90;;;;;;5133533;27;20506;-79
2022/07/06 07:05:05;;;;;;;1.45;0.55;;;17.50;99.90;;;;;;5133652;27;20043;-78
2022/07/06 07:07:31;;;;;;;2.17;0.50;;;17.60;99.90;;;;;;5133765;27;20136;-80
2022/07/06 07:09:57;;;;;;;2.55;0.75;;;17.50;99.90;;;;;;5133729;27;20066;-79
2022/07/06 07:12:23;;;;;;;2.58;0.50;;;17.40;99.90;;;;;;5133635;27;20042;-79
2022/07/06 07:14:49;;;;;;;3.33;0.82;;;17.40;99.90;;;;;;5133266;27;20073;-79
2022/07/06 07:17:14;;;;;;;2.55;0.50;;;17.40;99.90;;;;;;5133199;27;20076;-79
2022/07/06 07:19:40;;;;;;;2.72;0.75;;;17.40;99.90;;;;;;5133016;27;20035;-79
2022/07/06 07:22:06;;;;;;;3.83;0.80;;;17.30;99.90;;;;;;5116083;27;20714;-80
2022/07/06 07:24:31;;;;;;;1.42;0.35;;;17.20;99.90;;;;;;5133289;27;20462;-79
2022/07/06 07:26:57;;;;;;;4.10;0.50;;;17.20;99.90;;;;;;5133444;27;20088;-79
2022/07/06 07:29:23;;;;;;;2.78;0.30;;;17.30;99.90;;;;;;5134280;27;20035;-79
2022/07/06 07:31:48;;;;;;;2.05;0.40;;;17.40;99.90;;;;;;5133642;27;20035;-79
2022/07/06 07:34:14;;;;;;;5.47;1.40;;;17.50;99.90;;;;;;5133828;27;20051;-79
2022/07/06 07:36:40;;;;;;;1.73;0.50;;;17.60;99.90;;;;;;5133012;27;20046;-79
2022/07/06 07:39:05;;;;;;;2.08;0.70;;;17.70;99.90;;;;;;5133246;27;20043;-79
2022/07/06 07:41:31;;;;;;;2.13;0.60;;;18.00;99.90;;;;;;5132742;27;20528;-79
2022/07/06 07:43:57;;;;;;;1.85;0.55;;;18.60;99.90;;;;;;5116019;27;20043;-79
2022/07/06 07:46:23;;;;;;;3.00;0.50;;;19.00;99.90;;;;;;5133683;27;20042;-79
2022/07/06 07:48:49;;;;;;;2.88;0.40;;;19.20;99.90;;;;;;5133158;27;20047;-79
2022/07/06 07:51:14;;;;;;;2.67;0.60;;;19.70;99.90;;;;;;5132762;27;20043;-80
2022/07/06 07:53:40;;;;;;;4.43;0.55;;;20.20;99.90;;;;;;5134304;27;20092;-79
2022/07/06 07:56:06;;;;;;;2.10;0.35;;;20.50;99.90;;;;;;5132898;27;20035;-80
2022/07/06 07:58:31;;;;;;;1.60;0.35;;;20.90;99.90;;;;;;5133260;27;20121;-79
2022/07/06 08:00:57;;;;;;;4.30;0.60;;;21.20;99.90;;;;;;5133325;27;20039;-80
2022/07/06 08:03:23;;;;;;;1.65;0.40;;;21.20;99.90;;;;;;5132777;27;20523;-79
2022/07/06 08:05:48;;;;;;;3.42;0.52;;;21.40;99.90;;;;;;5132438;27;20039;-79
2022/07/06 08:08:15;;;;;;;2.60;0.38;;;21.60;99.90;;;;;;5133106;27;20035;-79
2022/07/06 08:10:40;;;;;;;2.78;0.45;;;21.70;99.90;;;;;;5132995;27;20460;-78
2022/07/06 08:13:07;;;;;;;2.22;0.50;;;21.80;99.90;;;;;;5132947;27;20118;-79
2022/07/06 08:15:33;;;;;;;1.40;0.45;;;21.70;99.90;;;;;;5132902;27;20300;-79
2022/07/06 08:17:59;;;;;;;2.80;0.52;;;21.50;99.90;;;;;;5132515;27;20092;-79
2022/07/06 08:20:25;;;;;;;1.13;0.57;;;21.70;99.90;;;;;;5133703;27;20047;-78
2022/07/06 08:22:51;;;;;;;3.60;0.50;;;21.80;99.90;;;;;;5132676;27;20434;-79
2022/07/06 08:25:17;;;;;;;1.80;1.08;;;22.00;99.70;;;;;;5132310;27;20462;-79
2022/07/06 08:27:43;;;;;;;1.77;0.70;;;21.80;98.80;;;;;;5132290;27;20151;-79
2022/07/06 08:30:10;;;;;;;2.13;0.60;;;21.40;98.80;;;;;;5132464;27;20043;-79
2022/07/06 08:32:42;;;;;;;2.03;0.60;;;21.20;99.40;;;;;;5132593;27;20111;-78
2022/07/06 08:35:09;;;;;;;2.92;0.50;;;21.10;99.50;;;;;;5132704;27;20070;-79
2022/07/06 08:37:35;;;;;;;1.98;0.45;;;20.90;99.90;;;;;;5133661;27;20432;-79
2022/07/06 08:40:01;;;;;;;1.88;0.50;;;20.80;99.90;;;;;;5132131;27;20083;-79
2022/07/06 08:42:30;;;;;;;6.63;0.50;;;20.80;99.60;;;;;;5114835;27;20074;-80
2022/07/06 08:45:00;;;;;;;2.45;0.68;;;21.00;98.70;;;;;;5132219;27;20043;-79
2022/07/06 08:47:27;;;;;;;1.58;0.38;;;21.20;98.70;;;;;;5132408;27;20420;-80
2022/07/06 08:49:53;;;;;;;2.40;0.60;;;21.30;98.80;;;;;;5132244;27;20077;-79
2022/07/06 08:52:19;;;;;;;1.75;0.30;;;21.30;98.40;;;;;;5132070;27;20043;-79
2022/07/06 08:54:45;;;;;;;1.48;0.32;;;21.40;97.90;;;;;;5132676;27;20383;-79
2022/07/06 08:57:10;;;;;;;4.40;0.50;;;21.40;97.70;;;;;;5116329;27;20168;-79
2022/07/06 08:59:38;;;;;;;2.22;0.47;;;21.50;97.40;;;;;;5135291;27;20039;-78
2022/07/06 09:02:04;;;;;;;2.03;0.40;;;21.40;97.30;;;;;;5132408;27;20401;-78
2022/07/06 09:04:35;;;;;;;1.83;0.40;;;21.20;97.70;;;;;;5131699;27;20405;-79
2022/07/06 09:07:00;;;;;;;2.90;0.50;;;20.90;98.00;;;;;;5133272;27;20363;-79
2022/07/06 09:09:30;;;;;;;3.28;0.60;;;20.50;98.00;;;;;;5114863;27;20099;-78
2022/07/06 09:11:57;;;;;;;0.98;0.47;;;20.10;98.40;;;;;;5132747;27;20130;-79
2022/07/06 09:14:23;;;;;;;4.72;0.45;;;20.10;99.20;;;;;;5115866;27;20452;-83
2022/07/06 09:17:02;;;;;;;2.70;0.68;;;20.40;99.50;;;;;;5131736;27;20121;-80
2022/07/06 09:19:28;;;;;;;2.75;0.30;;;20.90;99.30;;;;;;5130804;27;20039;-79
2022/07/06 09:21:54;;;;;;;2.15;0.57;;;21.10;97.90;;;;;;5131113;27;20047;-77
2022/07/06 09:24:19;;;;;;;1.52;0.40;;;21.20;97.30;;;;;;5130782;27;20500;-79
2022/07/06 09:26:47;;;;;;;1.67;0.50;;;21.60;97.30;;;;;;5131776;27;20043;-79
2022/07/06 09:29:13;;;;;;;0.80;0.28;;;21.50;96.30;;;;;;5130711;27;20046;-78
2022/07/06 09:31:39;;;;;;;4.10;0.68;;;21.40;95.70;;;;;;5130552;27;20054;-79
2022/07/06 09:34:07;;;;;;;1.55;0.45;;;21.10;95.60;;;;;;5132112;27;20039;-79
2022/07/06 09:36:50;;;;;;;1.13;0.32;;;20.70;95.90;;;;;;5130528;27;20529;-79
2022/07/06 09:39:19;;;;;;;1.77;0.35;;;20.90;94.40;;;;;;5130974;27;20101;-79
2022/07/06 09:41:46;;;;;;;3.03;0.68;;;21.20;94.90;;;;;;5130317;27;20054;-80
2022/07/06 09:44:12;;;;;;;1.10;0.30;;;21.70;93.20;;;;;;5130296;27;20043;-78
2022/07/06 09:46:48;;;;;;;4.30;0.50;;;22.10;92.50;;;;;;5130533;27;20407;-79
2022/07/06 09:49:18;;;;;;;0.73;0.22;;;22.40;91.30;;;;;;5130558;27;20060;-79
2022/07/06 09:51:45;;;;;;;2.78;0.45;;;22.60;91.40;;;;;;5130327;28;20067;-80
2022/07/06 09:54:10;;;;;;;0.47;0.47;;;22.20;88.30;;;;;;5130277;27;20039;-79
2022/07/06 09:56:40;;;;;;;2.05;0.50;;;22.00;86.10;;;;;;5131579;27;20076;-78
2022/07/06 09:59:10;;;;;;;0.68;0.30;;;21.70;84.70;;;;;;5130231;27;20042;-79
2022/07/06 10:01:38;;;;;;;3.10;0.28;;;21.50;84.30;;;;;;5130355;28;20039;-78
2022/07/06 10:04:05;;;;;;;1.35;0.30;;;21.40;84.20;;;;;;5130340;28;20075;-78
2022/07/06 10:06:31;;;;;;;2.30;0.45;;;21.20;85.90;;;;;;5130371;27;20529;-79
2022/07/06 10:08:58;;;;;;;3.30;0.50;;;21.10;86.30;;;;;;5130571;28;20035;-79
2022/07/06 10:11:24;;;;;;;2.53;0.63;;;21.00;86.50;;;;;;5130284;28;20493;-78
2022/07/06 10:13:54;;;;;;;1.27;0.40;;;21.10;88.00;;;;;;5130304;28;20051;-79
2022/07/06 10:16:24;;;;;;;3.33;0.75;;;21.20;90.00;;;;;;5130032;28;20050;-79
2022/07/06 10:18:54;;;;;;;0.50;0.40;;;21.30;90.60;;;;;;5130179;28;20047;-78
2022/07/06 10:21:24;;;;;;;1.77;0.52;;;21.30;91.00;;;;;;5132043;27;20658;-79
2022/07/06 10:23:50;;;;;;;2.28;0.35;;;21.20;90.40;;;;;;5134208;27;20035;-78
2022/07/06 10:26:18;;;;;;;1.92;0.52;;;21.00;88.90;;;;;;5134388;27;20067;-78
2022/07/06 10:28:46;;;;;;;1.52;0.68;;;21.00;90.10;;;;;;5134268;27;20056;-78
2022/07/06 10:31:13;;;;;;;1.13;0.40;;;21.20;90.40;;;;;;5133884;27;20047;-79
2022/07/06 10:33:39;;;;;;;1.90;0.60;;;21.20;90.80;;;;;;5133916;27;20065;-79
2022/07/06 10:36:05;;;;;;;3.20;0.50;;;21.20;90.80;;;;;;5133840;27;20513;-78
2022/07/06 10:38:33;;;;;;;4.70;0.57;;;21.20;90.60;;;;;;5134195;27;20152;-80
2022/07/06 10:41:06;;;;;;;1.98;0.50;;;21.60;90.90;;;;;;5133778;27;20127;-78
2022/07/06 10:43:36;;;;;;;2.17;0.68;;;21.80;89.50;;;;;;5134133;27;20160;-78
2022/07/06 10:46:16;;;;;;;4.15;0.77;;;22.10;89.80;;;;;;5133762;27;20035;-79
2022/07/06 10:48:44;;;;;;;2.22;0.50;;;22.20;89.70;;;;;;5133740;27;20119;-79
2022/07/06 10:51:23;;;;;;;1.33;0.40;;;22.30;88.90;;;;;;5133428;27;20039;-78
2022/07/06 10:53:56;;;;;;;1.58;0.45;;;22.20;87.50;;;;;;5133662;27;20075;-78
2022/07/06 10:56:36;;;;;;;3.17;0.60;;;22.30;86.80;;;;;;5133607;27;20051;-78
2022/07/06 10:59:08;;;;;;;2.28;0.40;;;22.30;84.80;;;;;;5133740;27;20086;-78
2022/07/06 11:01:35;;;;;;;2.08;0.47;;;22.30;85.70;;;;;;5133845;27;20118;-79
2022/07/06 11:04:02;;;;;;;0.90;0.47;;;22.10;84.10;;;;;;5133743;27;20405;-78
2022/07/06 11:06:31;;;;;;;4.70;0.40;;;22.00;84.10;;;;;;5133342;27;20440;-79
2022/07/06 11:09:08;;;;;;;1.75;0.40;;;22.10;85.50;;;;;;5133289;27;20038;-79
2022/07/06 11:11:33;;;;;;;4.55;0.45;;;22.20;84.70;;;;;;5132966;27;20043;-79
2022/07/06 11:14:18;;;;;;;1.10;0.40;;;22.30;84.00;;;;;;5133957;27;20127;-78
2022/07/06 11:16:47;;;;;;;2.75;0.50;;;22.30;84.70;;;;;;5133829;27;20051;-78
2022/07/06 11:19:18;;;;;;;1.23;0.38;;;22.40;86.90;;;;;;5149761;27;20050;-78
2022/07/06 11:21:51;;;;;;;3.45;0.60;;;22.50;85.30;;;;;;5154379;27;20046;-79
2022/07/06 11:24:20;;;;;;;1.27;0.45;;;22.70;85.10;;;;;;5147296;27;20062;-78
2022/07/06 11:26:49;;;;;;;2.03;0.68;;;23.10;85.70;;;;;;5138085;27;20079;-78
2022/07/06 11:29:17;;;;;;;1.80;0.55;;;23.00;82.60;;;;;;5133847;27;20080;-78
2022/07/06 11:31:45;;;;;;;3.20;0.35;;;22.70;82.70;;;;;;5133009;27;20085;-77
2022/07/06 11:34:14;;;;;;;6.40;0.77;;;22.40;83.00;;;;;;5132436;27;20035;-78
2022/07/06 11:36:40;;;;;;;3.35;0.40;;;22.10;83.20;;;;;;5133316;27;20051;-78
2022/07/06 11:39:06;;;;;;;3.83;0.70;;;21.90;83.60;;;;;;5115860;27;20051;-78
2022/07/06 11:41:32;;;;;;;2.22;0.57;;;21.80;85.00;;;;;;5132499;27;20571;-78
2022/07/06 11:43:58;;;;;;;3.83;0.40;;;21.60;85.70;;;;;;5132556;27;20035;-78
2022/07/06 11:46:31;;;;;;;1.92;0.52;;;21.60;87.30;;;;;;5133900;27;20058;-79
2022/07/06 11:49:02;;;;;;;3.10;0.60;;;21.60;88.90;;;;;;5132904;27;20047;-78
2022/07/06 11:51:30;;;;;;;1.17;0.47;;;21.80;90.30;;;;;;5132325;27;20039;-78
2022/07/06 11:53:59;;;;;;;1.42;0.45;;;22.00;90.10;;;;;;5132794;27;20047;-78
2022/07/06 11:56:27;;;;;;;2.20;0.50;;;22.40;89.60;;;;;;5132877;27;20109;-78
2022/07/06 11:59:00;;;;;;;0.85;0.40;;;22.50;87.40;;;;;;5132513;27;20039;-78
2022/07/06 12:01:27;;;;;;;1.95;0.60;;;22.40;84.40;;;;;;5132270;27;20078;-78
2022/07/06 12:03:56;;;;;;;2.95;0.77;;;22.40;85.70;;;;;;5115417;27;20069;-78
2022/07/06 12:06:24;;;;;;;1.30;0.52;;;22.40;83.80;;;;;;5132720;27;20035;-79
2022/07/06 12:08:52;;;;;;;2.90;0.88;;;22.50;84.10;;;;;;5132344;27;20038;-78
2022/07/06 12:11:26;;;;;;;1.10;0.40;;;22.40;84.20;;;;;;5132329;27;20043;-78
2022/07/06 12:13:54;;;;;;;2.40;0.60;;;22.40;84.40;;;;;;5132344;27;20102;-78
2022/07/06 12:16:22;;;;;;;1.80;0.45;;;22.40;84.50;;;;;;5132502;27;20047;-78
2022/07/06 12:18:50;;;;;;;2.22;0.40;;;22.50;83.40;;;;;;5132895;27;20043;-79
2022/07/06 12:21:18;;;;;;;1.90;0.73;;;22.50;81.20;;;;;;5132022;27;20039;-78
2022/07/06 12:23:45;;;;;;;2.15;0.50;;;22.50;81.00;;;;;;5132058;27;20103;-78
2022/07/06 12:26:13;;;;;;;3.42;0.98;;;22.80;80.70;;;;;;5131931;27;20042;-78
2022/07/06 12:28:39;;;;;;;0.90;0.35;;;23.10;78.90;;;;;;5132557;27;20035;-78
2022/07/06 12:31:04;;;;;;;0.85;0.70;;;23.00;77.00;;;;;;5133074;27;20629;-78
2022/07/06 12:33:30;;;;;;;2.47;0.52;;;23.10;78.10;;;;;;5132131;27;20043;-78
2022/07/06 12:35:56;;;;;;;1.38;0.75;;;23.00;75.00;;;;;;5131801;27;20062;-78
2022/07/06 12:38:25;;;;;;;0.98;0.50;;;23.00;75.90;;;;;;5131692;27;20379;-77
2022/07/06 12:40:51;;;;;;;4.65;0.57;;;22.90;75.90;;;;;;5131293;27;20126;-78
2022/07/06 12:43:37;;;;;;;4.80;0.95;;;22.70;76.50;;;;;;5131601;27;20113;-78
2022/07/06 12:46:38;;;;;;;1.15;0.60;;;22.70;76.40;;;;;;5131134;27;20039;-79
2022/07/06 12:49:16;;;;;;;1.77;0.60;;;22.90;72.60;;;;;;5131814;27;20031;-78
2022/07/06 12:51:54;;;;;;;3.85;0.50;;;23.20;72.50;;;;;;5131957;27;20039;-79